Flight Track Log - Related Links

Times and Time Zones

All times are in EDT time to prevent confusion due to time zone crossing. See the PDT9312 flight status page for this flight to view local times or setup timezone preferences in your user account.

Time Position Orientation Groundspeed Altitude Reporting Facility
EDT Latitude Longitude Course Direction KTS MPH feet Rate Location/Type
Thu 12:37:15 PM 40.1998 -76.7279 312° West  Level FlightAware Approximate
Thu 12:38:15 PM 40.2152 -76.6476 293° West  Level FlightAware Approximate
Thu 12:39:15 PM 40.2304 -76.5673 283° West  Level FlightAware Approximate
Thu 12:40:33 PM 40.2764 -76.8381 334° Northwest 152 175 4,700  Level New York Center
Thu 12:41:31 PM 40.3108 -76.8600 332° Northwest 152 175 6,100 1,373 Climbing New York Center
Thu 12:42:31 PM 40.3469 -76.8850 North 152 175 7,400 1,289 Climbing New York Center
Thu 12:43:32 PM 40.3969 -76.8842 North 152 175 8,700 1,279 Climbing New York Center
Thu 12:44:33 PM 40.4369 -76.8794 North 151 174 10,000 645 Climbing New York Center
Thu 12:45:33 PM 40.4933 -76.8761 360° North 183 211 10,000  Level New York Center
Thu 12:46:31 PM 40.5539 -76.8761 56° Northeast 206 237 10,000  Level New York Center
Thu 12:47:32 PM 40.5886 -76.8081 86° East 220 253 10,000  Level New York Center
Thu 12:48:35 PM 40.5933 -76.7128 79° East 218 251 10,000  Level New York Center
Thu 12:49:32 PM 40.6064 -76.6211 81° East 248 285 10,000  Level New York Center
Thu 12:50:33 PM 40.6169 -76.5344 80° East 256 295 10,000  Level New York Center
Thu 12:51:33 PM 40.6297 -76.4425 83° East 256 295 10,000  Level New York Center
Thu 12:52:31 PM 40.6386 -76.3419 95° East 256 295 10,000  Level New York Center
Thu 12:53:31 PM 40.6325 -76.2458 94° East 256 295 10,000  Level New York Center
Thu 12:54:31 PM 40.6267 -76.1469 94° East 256 295 10,000  Level New York Center
Thu 12:55:34 PM 40.6222 -76.0617 94° East 256 295 10,000  Level New York Center
Thu 12:56:33 PM 40.6167 -75.9547 92° East 256 295 10,000  Level New York Center
Thu 12:57:31 PM 40.6139 -75.8697 94° East 256 295 10,000  Level New York Center
Thu 12:58:31 PM 40.6081 -75.7628 93° East 256 295 10,000  Level New York Center
Thu 12:59:32 PM 40.6039 -75.6667 93° East 256 295 10,000  Level New York Center
Thu 01:00:33 PM 40.5994 -75.5678 94° East 261 300 10,000  Level New York Center
Thu 01:01:34 PM 40.5947 -75.4803 95° East 261 300 10,000  Level New York Center
Thu 01:02:31 PM 40.5867 -75.3703 95° East 261 300 10,000  Level New York Center
Thu 01:03:31 PM 40.5800 -75.2742 93° East 266 306 10,000  Level New York Center
Thu 01:04:32 PM 40.5753 -75.1728 93° East 274 315 10,000  Level New York Center
Thu 01:05:31 PM 40.5722 -75.0853 98° East 274 315 10,000  Level New York Center
Thu 01:06:33 PM 40.5597 -74.9750 111° Southeast 274 315 10,000  Level New York Center
Thu 01:07:30 PM 40.5317 -74.8806 111° Southeast 274 315 10,000  Level New York Center
Thu 01:08:31 PM 40.5075 -74.7972 114° Southeast 279 321 10,000  Level New York Center
Thu 01:09:31 PM 40.4792 -74.7136 109° East 260 299 10,000  Level New York Center
Thu 01:10:33 PM 40.4569 -74.6278 165° South 253 291 10,000  Level New York Center
Thu 01:11:31 PM 40.4014 -74.6083 174° South 214 246 10,000  Level New York Center
Thu 01:12:32 PM 40.3369 -74.5994 111° Southeast 209 241 10,000 -992 Level New York Center
Thu 01:13:32 PM 40.3144 -74.5244 70° East 200 230 8,000 -1,008 Descending New York Center
Thu 01:14:31 PM 40.3333 -74.4547 69° East 190 219 8,000  Level New York Center
Thu 01:15:31 PM 40.3564 -74.3769 61° Northeast 201 231 8,000 -492 Level New York Center
Thu 01:16:33 PM 40.3858 -74.3078 58° Northeast 212 244 7,000 -492 Descending New York Center
Thu 01:17:33 PM 40.4147 -74.2467 58° Northeast 206 237 7,000  Level New York Center
Thu 01:18:33 PM 40.4436 -74.1853 58° Northeast 195 224 7,000 -575 Level New York Center
Thu 01:19:59 PM 40.4833 -74.1000 14° North 194 223 5,600 -986 Descending New York TRACON
Thu 01:20:53 PM 40.5333 -74.0833 360° North 179 206 4,700 -800 Descending New York TRACON
Thu 01:21:59 PM 40.5833 -74.0833 14° North 183 211 4,000 -333 Descending New York TRACON
Thu 01:22:59 PM 40.6333 -74.0667 27° Northeast 191 220 4,000  Level New York TRACON
Thu 01:23:59 PM 40.6833 -74.0333 37° Northeast 197 227 4,000  Level New York TRACON
Thu 01:24:59 PM 40.7333 -73.9833 37° Northeast 197 227 4,000  Level New York TRACON
Thu 01:25:59 PM 40.7667 -73.9500 360° North 195 224 4,000  Level New York TRACON
Thu 01:26:53 PM 40.8167 -73.9500 14° North 191 220 4,000  Level New York TRACON
Thu 01:27:53 PM 40.8667 -73.9333 27° Northeast 187 215 4,000  Level New York TRACON
Thu 01:28:53 PM 40.9167 -73.9000 72° East 195 224 4,000 -100 Level New York TRACON
Thu 01:29:53 PM 40.9333 -73.8333 108° East 188 216 3,800 -476 Descending New York TRACON
Thu 01:30:59 PM 40.9167 -73.7667 217° Southwest 187 215 3,000 -762 Descending New York TRACON
Thu 01:31:59 PM 40.8833 -73.8000 201° Southwest 170 196 2,200 -850 Descending New York TRACON
Thu 01:32:59 PM 40.8500 -73.8167 217° Southwest 138 159 1,300 -789 Descending New York TRACON
Thu 01:33:53 PM 40.8167 -73.8500 201° Southwest 125 144 700 -579 Descending New York TRACON
Thu 01:34:53 PM 40.7833 -73.8667 201° Southwest 118 136 200 -500 Descending New York TRACON

Login

Don't have an account? Register now (free) for customized features, flight alerts, and more!